METAR Data
IDs: Format: Raw Decoded Include TAF

Data at: 0005 UTC 01 Mar 2021

LEST 010000Z 10003KT 060V140 CAVOK 05/03 Q1016 NOSIG